Terminal Aerodrome Forecast
Issued by NWS Quad Cities IA IL

Home | Current Version | Previous Version | Text Only | Print | Product List | Glossary On
Versions: 1 2 3 4 5 6 7 8 9 10 11 12 13 14
000
FTUS43 KDVN 221142
TAFDBQ
TAF
KDBQ 221142Z 2212/2312 33014G21KT P6SM BKN045
     FM221500 32018G27KT P6SM BKN060
     FM222300 32012KT P6SM FEW060
     FM230100 31006KT P6SM SKC=

USA.gov is the U.S. government's official web portal to all federal, state and local government web resources and services.